Time;durP1;ratioP1;P1;durP2;ratioP2;P2;SDS_P1;SDS_P2;PMS_P1;PMS_P2;Temp;Humidity;BMP_temperature;BMP_pressure;BME280_temperature;BME280_humidity;BME280_pressure;Samples;Min_cycle;Max_cycle;Signal;HPM_P1;HPM_P2
2024/02/21 00:01:26;;;;;;;11.70;8.50;;;;;;;1.38;100.00;101155.81;106093;1257;60453;-58
2024/02/21 00:03:54;;;;;;;14.80;9.70;;;;;;;1.40;100.00;101148.59;106061;1253;73945;-58
2024/02/21 00:06:21;;;;;;;13.70;10.50;;;;;;;1.42;100.00;101145.27;106543;1256;66737;-57
2024/02/21 00:08:49;;;;;;;12.30;8.90;;;;;;;1.44;100.00;101147.41;106043;1258;72493;-57
2024/02/21 00:11:16;;;;;;;14.50;10.20;;;;;;;1.43;100.00;101144.58;106541;1259;60567;-58
2024/02/21 00:13:44;;;;;;;14.30;11.30;;;;;;;1.43;100.00;101143.52;106081;1259;59967;-57
2024/02/21 00:16:13;;;;;;;15.00;10.90;;;;;;;1.44;100.00;101141.92;106081;1254;74342;-58
2024/02/21 00:18:40;;;;;;;11.60;9.70;;;;;;;1.44;100.00;101139.80;106298;1257;69202;-58
2024/02/21 00:21:08;;;;;;;12.10;9.30;;;;;;;1.44;100.00;101139.10;105978;1256;72887;-57
2024/02/21 00:23:35;;;;;;;14.50;9.70;;;;;;;1.45;100.00;101135.38;105957;1258;61013;-57
2024/02/21 00:26:02;;;;;;;11.90;9.90;;;;;;;1.45;100.00;101133.61;106033;1256;60764;-58
2024/02/21 00:28:30;;;;;;;12.50;8.70;;;;;;;1.46;100.00;101136.45;106228;1255;72247;-57
2024/02/21 00:30:57;;;;;;;13.10;8.50;;;;;;;1.48;100.00;101135.77;105994;1259;67543;-58
2024/02/21 00:33:24;;;;;;;13.90;10.10;;;;;;;1.48;100.00;101135.06;106073;1259;72712;-58
2024/02/21 00:35:52;;;;;;;12.30;9.10;;;;;;;1.50;100.00;101128.36;106047;1269;61017;-56
2024/02/21 00:38:19;;;;;;;15.20;9.50;;;;;;;1.51;100.00;101129.45;106070;1258;60550;-57
2024/02/21 00:40:46;;;;;;;13.90;9.50;;;;;;;1.53;100.00;101125.04;106079;1259;72675;-57
2024/02/21 00:43:14;;;;;;;13.80;8.90;;;;;;;1.55;100.00;101125.39;108407;1258;67647;-57
2024/02/21 00:45:41;;;;;;;19.20;11.10;;;;;;;1.57;100.00;101120.46;106054;1259;73218;-56
2024/02/21 00:48:09;;;;;;;13.90;9.60;;;;;;;1.59;100.00;101124.04;106090;1256;61786;-57
2024/02/21 00:50:37;;;;;;;16.80;9.90;;;;;;;1.62;100.00;101124.41;106341;1258;61096;-57
2024/02/21 00:53:05;;;;;;;14.50;10.30;;;;;;;1.65;100.00;101124.09;107151;1258;73855;-57
2024/02/21 00:55:32;;;;;;;14.20;9.60;;;;;;;1.68;100.00;101117.75;106073;1259;66969;-56
2024/02/21 00:57:59;;;;;;;15.40;10.20;;;;;;;1.70;100.00;101118.13;106124;1259;71804;-56
2024/02/21 01:00:26;;;;;;;14.10;10.80;;;;;;;1.72;100.00;101115.66;106106;1254;60423;-57
2024/02/21 01:02:54;;;;;;;15.20;10.20;;;;;;;1.75;100.00;101114.98;106152;1253;60474;-56
2024/02/21 01:05:22;;;;;;;12.00;9.00;;;;;;;1.77;100.00;101118.02;106086;1256;72640;-56
2024/02/21 01:07:49;;;;;;;12.60;9.80;;;;;;;1.78;100.00;101113.42;109014;1253;66763;-57
2024/02/21 01:10:17;;;;;;;15.00;10.30;;;;;;;1.81;100.00;101110.42;108952;1256;71440;-57
2024/02/21 01:12:44;;;;;;;19.20;10.80;;;;;;;1.83;100.00;101109.57;109070;1253;60014;-57
2024/02/21 01:15:12;;;;;;;16.40;11.40;;;;;;;1.85;100.00;101111.55;108939;1258;58904;-57
2024/02/21 01:17:40;;;;;;;17.90;11.60;;;;;;;1.86;100.00;101112.79;108953;1255;72619;-57
2024/02/21 01:20:08;;;;;;;13.90;10.70;;;;;;;1.86;100.00;101110.85;109129;1256;67148;-56
2024/02/21 01:22:35;;;;;;;13.60;10.60;;;;;;;1.86;100.00;101105.89;109042;1254;71526;-56
2024/02/21 01:25:03;;;;;;;14.80;10.50;;;;;;;1.87;100.00;101102.88;108967;1253;61002;-57
2024/02/21 01:27:30;;;;;;;13.70;10.50;;;;;;;1.87;100.00;101105.17;108507;1257;59349;-57
2024/02/21 01:29:58;;;;;;;12.50;10.00;;;;;;;1.87;100.00;101104.82;106059;1256;73721;-56
2024/02/21 01:32:25;;;;;;;14.80;10.20;;;;;;;1.89;100.00;101106.41;106058;1258;65657;-56
2024/02/21 01:34:52;;;;;;;13.40;9.50;;;;;;;1.89;100.00;101104.30;106213;1256;72431;-57
2024/02/21 01:37:20;;;;;;;14.20;9.90;;;;;;;1.91;100.00;101107.51;106050;1257;60438;-58
2024/02/21 01:39:49;;;;;;;16.50;11.00;;;;;;;1.93;100.00;101105.40;109056;1253;59227;-58
2024/02/21 01:42:16;;;;;;;15.50;9.40;;;;;;;1.95;100.00;101103.84;109025;1253;73760;-56
2024/02/21 01:44:44;;;;;;;12.40;9.50;;;;;;;1.98;100.00;101101.17;109139;1253;65070;-56
2024/02/21 01:47:13;;;;;;;13.00;10.40;;;;;;;2.01;100.00;101103.52;107888;1258;71754;-57
2024/02/21 01:49:41;;;;;;;15.20;10.20;;;;;;;2.03;100.00;101105.48;106052;1259;61567;-57
2024/02/21 01:52:08;;;;;;;10.90;8.90;;;;;;;2.05;100.00;101100.89;106671;1258;60172;-57
2024/02/21 01:54:36;;;;;;;13.20;9.90;;;;;;;2.07;100.00;101107.80;106329;1259;74315;-58
2024/02/21 01:57:03;;;;;;;12.20;9.80;;;;;;;2.09;100.00;101106.95;106073;1259;66176;-58
2024/02/21 01:59:30;;;;;;;14.00;10.30;;;;;;;2.11;100.00;101112.10;106112;1258;71211;-57
2024/02/21 02:01:58;;;;;;;14.80;10.50;;;;;;;2.12;100.00;101114.41;106014;1259;60927;-58
2024/02/21 02:04:26;;;;;;;14.40;10.70;;;;;;;2.14;100.00;101119.17;105934;1261;60311;-58
2024/02/21 02:06:54;;;;;;;16.20;11.50;;;;;;;2.14;100.00;101117.95;107895;1261;73793;-58
2024/02/21 02:09:22;;;;;;;17.30;11.70;;;;;;;2.15;100.00;101115.13;106042;1256;65850;-58
2024/02/21 02:11:49;;;;;;;16.60;12.30;;;;;;;2.16;100.00;101120.45;106070;1269;72486;-57
2024/02/21 02:14:17;;;;;;;16.10;12.10;;;;;;;2.16;100.00;101119.92;106312;1269;61373;-58
2024/02/21 02:16:50;;;;;;;15.30;12.50;;;;;;;2.16;100.00;101117.44;106143;1254;60460;-58
2024/02/21 02:19:18;;;;;;;15.30;12.60;;;;;;;2.16;100.00;101119.73;106061;1260;74320;-57
2024/02/21 02:21:58;;;;;;;15.70;11.90;;;;;;;2.15;100.00;101118.13;106069;1263;65036;-57
2024/02/21 02:24:26;;;;;;;15.60;11.70;;;;;;;2.13;100.00;101121.84;106178;1259;70772;-58
2024/02/21 02:26:53;;;;;;;13.00;10.40;;;;;;;2.12;100.00;101114.76;105969;1260;60663;-58
2024/02/21 02:29:20;;;;;;;15.70;12.60;;;;;;;2.11;100.00;101115.64;106092;1259;60241;-57
2024/02/21 02:31:49;;;;;;;14.60;11.20;;;;;;;2.11;100.00;101117.23;106061;1265;72688;-58
2024/02/21 02:34:16;;;;;;;18.30;11.20;;;;;;;2.13;100.00;101119.70;106408;1263;66160;-58
2024/02/21 02:36:43;;;;;;;14.30;10.90;;;;;;;2.15;100.00;101120.61;105887;1260;73575;-57
2024/02/21 02:39:11;;;;;;;13.80;11.00;;;;;;;2.16;100.00;101124.70;105933;1259;60872;-57
2024/02/21 02:41:38;;;;;;;15.00;10.80;;;;;;;2.19;100.00;101126.86;106041;1259;60433;-57
2024/02/21 02:44:05;;;;;;;16.20;12.20;;;;;;;2.20;100.00;101126.88;105902;1254;73482;-57
2024/02/21 02:46:34;;;;;;;13.00;10.50;;;;;;;2.21;100.00;101126.86;105992;1256;65791;-58
2024/02/21 02:49:01;;;;;;;16.00;11.80;;;;;;;2.23;100.00;101132.36;106131;1258;72680;-58
2024/02/21 02:51:29;;;;;;;16.80;12.80;;;;;;;2.23;100.00;101132.90;106134;1257;61003;-58
2024/02/21 02:53:57;;;;;;;16.70;10.90;;;;;;;2.25;100.00;101133.63;105922;1254;60500;-59
2024/02/21 02:56:24;;;;;;;15.50;11.00;;;;;;;2.28;100.00;101140.20;105982;1266;74330;-59
2024/02/21 02:58:51;;;;;;;16.20;11.70;;;;;;;2.30;100.00;101142.17;106037;1256;67026;-57
2024/02/21 03:01:19;;;;;;;16.90;13.00;;;;;;;2.33;100.00;101145.19;105980;1260;71514;-57
2024/02/21 03:03:47;;;;;;;13.30;10.10;;;;;;;2.35;100.00;101149.83;106038;1261;61369;-58
2024/02/21 03:06:14;;;;;;;12.40;10.20;;;;;;;2.37;100.00;101148.77;105991;1268;59353;-58
2024/02/21 03:08:42;;;;;;;13.10;9.90;;;;;;;2.38;100.00;101148.96;106692;1258;71693;-58
2024/02/21 03:11:10;;;;;;;17.90;11.40;;;;;;;2.39;100.00;101149.84;106080;1258;66649;-58
2024/02/21 03:13:38;;;;;;;17.40;10.80;;;;;;;2.41;100.00;101155.16;106206;1259;70797;-58
2024/02/21 03:16:06;;;;;;;15.20;11.10;;;;;;;2.42;100.00;101156.78;106135;1256;63469;-56
2024/02/21 03:18:33;;;;;;;13.80;11.30;;;;;;;2.44;100.00;101158.39;106005;1254;60461;-56
2024/02/21 03:21:00;;;;;;;14.10;11.00;;;;;;;2.45;100.00;101161.41;106197;1256;74010;-55
2024/02/21 03:23:28;;;;;;;16.80;10.90;;;;;;;2.46;100.00;101160.71;106008;1259;65793;-56
2024/02/21 03:25:55;;;;;;;13.60;11.90;;;;;;;2.48;100.00;101160.17;106016;1256;71430;-56
2024/02/21 03:28:22;;;;;;;16.40;12.10;;;;;;;2.48;100.00;101166.91;106105;1254;60446;-58
2024/02/21 03:30:50;;;;;;;16.00;13.30;;;;;;;2.48;100.00;101165.30;106003;1259;60948;-57
2024/02/21 03:33:17;;;;;;;16.50;12.20;;;;;;;2.47;100.00;101165.31;106117;1254;74672;-56
2024/02/21 03:35:44;;;;;;;16.60;11.70;;;;;;;2.46;100.00;101162.66;106080;1254;66885;-58
2024/02/21 03:38:12;;;;;;;14.40;10.40;;;;;;;2.45;100.00;101158.58;106313;1255;72858;-56
2024/02/21 03:40:39;;;;;;;14.80;10.70;;;;;;;2.45;100.00;101164.43;106074;1261;59643;-56
2024/02/21 03:43:07;;;;;;;16.80;11.40;;;;;;;2.46;100.00;101169.76;106231;1265;61426;-56
2024/02/21 03:45:34;;;;;;;15.00;10.40;;;;;;;2.47;100.00;101169.74;106129;1254;73892;-57
2024/02/21 03:48:02;;;;;;;14.10;10.20;;;;;;;2.48;100.00;101167.44;106244;1254;67110;-57
2024/02/21 03:50:30;;;;;;;25.10;13.60;;;;;;;2.49;100.00;101170.64;109170;1253;71042;-57
2024/02/21 03:52:57;;;;;;;35.10;17.50;;;;;;;2.51;100.00;101170.13;109101;1259;59839;-58
2024/02/21 03:55:24;;;;;;;56.20;26.10;;;;;;;2.53;100.00;101170.68;108749;1253;58990;-58
2024/02/21 03:57:52;;;;;;;72.20;31.50;;;;;;;2.55;100.00;101173.52;106220;1254;72672;-56
2024/02/21 04:00:19;;;;;;;75.00;32.10;;;;;;;2.59;100.00;101176.20;106026;1260;66050;-56
2024/02/21 04:02:47;;;;;;;97.10;42.70;;;;;;;2.60;100.00;101175.34;106113;1259;72501;-57
2024/02/21 04:05:16;;;;;;;106.00;43.80;;;;;;;2.63;100.00;101180.84;106121;1260;60467;-57
2024/02/21 04:07:43;;;;;;;96.90;43.40;;;;;;;2.65;100.00;101179.95;106423;1255;59385;-57
2024/02/21 04:10:11;;;;;;;57.10;27.40;;;;;;;2.66;100.00;101172.36;106013;1259;72777;-58
2024/02/21 04:12:38;;;;;;;42.20;23.50;;;;;;;2.69;100.00;101178.77;106548;1254;67144;-56
2024/02/21 04:15:06;;;;;;;35.80;20.70;;;;;;;2.69;100.00;101185.50;106046;1253;72729;-56
2024/02/21 04:17:34;;;;;;;29.10;16.30;;;;;;;2.71;100.00;101185.33;106036;1260;60595;-55
2024/02/21 04:20:05;;;;;;;24.30;16.20;;;;;;;2.74;100.00;101190.11;106080;1254;60458;-55
2024/02/21 04:22:34;;;;;;;22.20;15.60;;;;;;;2.75;100.00;101192.61;109192;1256;73949;-56
2024/02/21 04:25:01;;;;;;;23.10;15.40;;;;;;;2.76;100.00;101197.58;109117;1257;67177;-56
2024/02/21 04:27:28;;;;;;;21.60;15.70;;;;;;;2.76;100.00;101194.05;109026;1255;72847;-55
2024/02/21 04:29:56;;;;;;;24.80;15.50;;;;;;;2.77;100.00;101193.52;109135;1255;59374;-55
2024/02/21 04:32:23;;;;;;;28.60;16.90;;;;;;;2.77;100.00;101195.83;106560;1260;61773;-58
2024/02/21 04:34:51;;;;;;;50.40;26.40;;;;;;;2.76;100.00;101196.00;106073;1265;73128;-55
2024/02/21 04:37:18;;;;;;;82.60;36.00;;;;;;;2.75;100.00;101194.73;106091;1260;65711;-56
2024/02/21 04:39:46;;;;;;;96.70;39.00;;;;;;;2.74;100.00;101194.91;109118;1254;72916;-59
2024/02/21 04:42:17;;;;;;;103.90;42.90;;;;;;;2.73;100.00;101197.38;109172;1254;61147;-57
2024/02/21 04:44:44;;;;;;;90.50;36.50;;;;;;;2.73;100.00;101199.15;108513;1258;60585;-59
2024/02/21 04:47:12;;;;;;;78.00;30.80;;;;;;;2.73;100.00;101202.35;106207;1259;74280;-56
2024/02/21 04:49:39;;;;;;;61.30;24.80;;;;;;;2.73;100.00;101206.06;109022;1253;66147;-57
2024/02/21 04:52:07;;;;;;;45.80;21.60;;;;;;;2.74;100.00;101208.20;109021;1253;71642;-57
2024/02/21 04:54:35;;;;;;;34.40;18.30;;;;;;;2.74;100.00;101208.73;106614;1260;60559;-56
2024/02/21 04:57:03;;;;;;;21.70;14.20;;;;;;;2.76;100.00;101213.18;106117;1261;60309;-58
2024/02/21 04:59:30;;;;;;;18.10;12.20;;;;;;;2.78;100.00;101214.81;109215;1254;73135;-56
2024/02/21 05:01:58;;;;;;;23.60;13.50;;;;;;;2.80;100.00;101211.63;106800;1257;65768;-57
2024/02/21 05:04:26;;;;;;;16.10;11.20;;;;;;;2.82;100.00;101217.83;106840;1257;70459;-56
2024/02/21 05:06:54;;;;;;;12.20;10.90;;;;;;;2.83;100.00;101217.30;106150;1258;60559;-55
2024/02/21 05:09:22;;;;;;;14.20;11.50;;;;;;;2.86;100.00;101221.94;106046;1259;60323;-55
2024/02/21 05:11:49;;;;;;;14.90;11.60;;;;;;;2.88;100.00;101222.32;106154;1257;74414;-58
2024/02/21 05:14:16;;;;;;;15.70;10.80;;;;;;;2.90;100.00;101224.62;106196;1254;67404;-56
2024/02/21 05:16:44;;;;;;;13.30;10.10;;;;;;;2.91;100.00;101228.35;106161;1257;74847;-58
2024/02/21 05:19:11;;;;;;;11.10;9.40;;;;;;;2.92;100.00;101235.09;106233;1255;61610;-57
2024/02/21 05:21:39;;;;;;;12.50;10.20;;;;;;;2.92;100.00;101231.38;106063;1254;60515;-56
2024/02/21 05:24:06;;;;;;;15.00;10.50;;;;;;;2.93;100.00;101235.30;106122;1253;72911;-60
2024/02/21 05:26:33;;;;;;;10.60;9.40;;;;;;;2.95;100.00;101232.65;106137;1255;65559;-56
2024/02/21 05:29:01;;;;;;;13.10;11.80;;;;;;;2.97;100.00;101235.67;106118;1255;72415;-57
2024/02/21 05:31:52;;;;;;;16.80;12.50;;;;;;;2.98;100.00;101239.20;107079;1259;60737;-56
2024/02/21 05:34:19;;;;;;;12.60;11.00;;;;;;;3.00;100.00;101250.91;106196;1257;60720;-57
2024/02/21 05:36:49;;;;;;;14.90;11.40;;;;;;;3.01;100.00;101244.37;106095;1258;73839;-57
2024/02/21 05:39:17;;;;;;;12.00;10.10;;;;;;;3.02;100.00;101244.91;106198;1259;67070;-58
2024/02/21 05:41:44;;;;;;;15.10;9.90;;;;;;;3.02;100.00;101244.03;106113;1259;73162;-57
2024/02/21 05:44:12;;;;;;;11.60;9.80;;;;;;;3.04;100.00;101249.02;106172;1260;64194;-57
2024/02/21 05:46:39;;;;;;;14.20;10.60;;;;;;;3.05;100.00;101250.62;106231;1254;60587;-57
2024/02/21 05:49:06;;;;;;;11.00;9.80;;;;;;;3.06;100.00;101248.85;108953;1252;74265;-57
2024/02/21 05:51:34;;;;;;;10.80;9.70;;;;;;;3.07;100.00;101255.92;106667;1260;64796;-56
2024/02/21 05:54:02;;;;;;;14.50;11.00;;;;;;;3.07;100.00;101254.86;105989;1254;75051;-57
2024/02/21 05:56:29;;;;;;;16.30;10.30;;;;;;;3.07;100.00;101255.94;106052;1257;60769;-56
2024/02/21 05:58:56;;;;;;;14.70;10.60;;;;;;;3.07;100.00;101255.39;105948;1257;60560;-55
2024/02/21 06:01:24;;;;;;;16.00;12.10;;;;;;;3.06;100.00;101256.48;106214;1260;72982;-57
2024/02/21 06:03:52;;;;;;;17.30;14.00;;;;;;;3.06;100.00;101262.14;105976;1261;65501;-57
2024/02/21 06:06:21;;;;;;;22.80;16.50;;;;;;;3.06;100.00;101260.73;106010;1266;71436;-56
2024/02/21 06:08:49;;;;;;;29.90;20.60;;;;;;;3.07;100.00;101260.55;106469;1260;60468;-57
2024/02/21 06:11:16;;;;;;;33.30;22.40;;;;;;;3.07;100.00;101261.60;105998;1255;61222;-58
2024/02/21 06:13:44;;;;;;;29.90;22.20;;;;;;;3.08;100.00;101265.33;106197;1254;72196;-56
2024/02/21 06:16:11;;;;;;;26.40;16.90;;;;;;;3.10;100.00;101270.50;106028;1258;65680;-55
2024/02/21 06:18:38;;;;;;;24.90;17.90;;;;;;;3.11;100.00;101270.86;106021;1270;71393;-57
2024/02/21 06:21:06;;;;;;;20.80;15.70;;;;;;;3.14;100.00;101274.97;106113;1267;60758;-59
2024/02/21 06:23:33;;;;;;;20.00;15.10;;;;;;;3.17;100.00;101279.23;105841;1260;61549;-56
2024/02/21 06:26:01;;;;;;;20.30;14.90;;;;;;;3.20;100.00;101280.50;106030;1260;72793;-57
2024/02/21 06:28:28;;;;;;;24.10;15.60;;;;;;;3.24;100.00;101282.98;105880;1269;65853;-56
2024/02/21 06:30:55;;;;;;;16.10;12.10;;;;;;;3.26;100.00;101286.73;106111;1269;71668;-56
2024/02/21 06:33:24;;;;;;;20.60;12.20;;;;;;;3.29;100.00;101286.94;105919;1257;61407;-56
2024/02/21 06:35:55;;;;;;;15.50;11.70;;;;;;;3.31;100.00;101290.51;106036;1256;60407;-57
2024/02/21 06:38:22;;;;;;;16.60;11.30;;;;;;;3.33;100.00;101291.73;106009;1264;73937;-56
2024/02/21 06:40:52;;;;;;;12.30;9.80;;;;;;;3.35;100.00;101290.69;106005;1262;65958;-57
2024/02/21 06:43:20;;;;;;;13.00;10.00;;;;;;;3.38;100.00;101296.40;106027;1260;71389;-56
2024/02/21 06:45:50;;;;;;;14.00;10.40;;;;;;;3.42;100.00;101301.20;106544;1257;62182;-56
2024/02/21 06:48:19;;;;;;;13.40;10.70;;;;;;;3.45;100.00;101304.60;107121;1257;60520;-57
2024/02/21 06:50:47;;;;;;;14.20;12.00;;;;;;;3.49;100.00;101304.45;106146;1260;73050;-55
2024/02/21 06:53:14;;;;;;;13.10;11.50;;;;;;;3.53;100.00;101306.23;105977;1254;66822;-59
2024/02/21 06:55:41;;;;;;;10.80;9.70;;;;;;;3.56;100.00;101313.17;105910;1261;73194;-57
2024/02/21 06:58:11;;;;;;;10.30;9.30;;;;;;;3.59;100.00;101317.08;106020;1257;61094;-56
2024/02/21 07:00:40;;;;;;;10.40;9.20;;;;;;;3.63;100.00;101324.39;106050;1260;60671;-59
2024/02/21 07:03:08;;;;;;;15.40;9.40;;;;;;;3.66;100.00;101329.90;106040;1255;72670;-57
2024/02/21 07:05:35;;;;;;;13.60;11.20;;;;;;;3.70;100.00;101336.49;106084;1258;67622;-56
2024/02/21 07:08:03;;;;;;;14.80;11.90;;;;;;;3.71;100.00;101336.50;106086;1256;72668;-57
2024/02/21 07:10:30;;;;;;;18.00;12.40;;;;;;;3.73;100.00;101340.42;106718;1261;61364;-57
2024/02/21 07:12:58;;;;;;;13.60;11.00;;;;;;;3.75;100.00;101339.69;105979;1266;60652;-57
2024/02/21 07:15:26;;;;;;;15.60;11.70;;;;;;;3.76;100.00;101341.48;106014;1260;74346;-57
2024/02/21 07:17:54;;;;;;;15.70;11.60;;;;;;;3.78;100.00;101345.58;108963;1256;65782;-58
2024/02/21 07:20:21;;;;;;;18.10;12.00;;;;;;;3.80;100.00;101350.75;107244;1258;71474;-57
2024/02/21 07:22:50;;;;;;;16.60;11.70;;;;;;;3.81;100.00;101354.48;105999;1260;61633;-58
2024/02/21 07:25:17;;;;;;;14.80;11.80;;;;;;;3.82;100.00;101356.98;108968;1254;58763;-57
2024/02/21 07:27:45;;;;;;;12.80;10.50;;;;;;;3.84;100.00;101359.63;109100;1257;74043;-56
2024/02/21 07:30:12;;;;;;;13.80;10.80;;;;;;;3.85;100.00;101362.65;108134;1257;67423;-56
2024/02/21 07:32:44;;;;;;;18.00;12.10;;;;;;;3.87;100.00;101367.82;109001;1257;72877;-57
2024/02/21 07:35:11;;;;;;;13.40;11.80;;;;;;;3.89;100.00;101371.21;109074;1256;59418;-58
2024/02/21 07:37:39;;;;;;;16.80;13.00;;;;;;;3.89;100.00;101369.61;109004;1257;59107;-58
2024/02/21 07:42:59;;;;;;;17.40;12.30;;;;;;;3.88;100.00;101453.77;103085;1291;600541;-57
2024/02/21 07:45:26;;;;;;;16.40;11.10;;;;;;;3.87;100.00;101490.88;105124;1270;60950;-59
2024/02/21 07:47:54;;;;;;;16.40;13.00;;;;;;;3.88;100.00;101470.48;105190;1266;60817;-58
2024/02/21 07:50:21;;;;;;;13.50;10.00;;;;;;;3.90;100.00;101465.17;108270;1266;70690;-58
2024/02/21 07:52:49;;;;;;;12.30;9.10;;;;;;;3.92;100.00;101458.95;108176;1269;67674;-58
2024/02/21 07:55:16;;;;;;;12.60;10.10;;;;;;;3.94;100.00;101455.94;106599;1268;71454;-60
2024/02/21 07:57:44;;;;;;;14.70;11.30;;;;;;;3.96;100.00;101451.35;105166;1269;196141;-56
2024/02/21 08:00:19;;;;;;;12.00;10.00;;;;;;;3.99;100.00;101449.23;105367;1266;60029;-58
2024/02/21 08:02:50;;;;;;;14.10;11.30;;;;;;;4.02;100.00;101449.60;108413;1266;71114;-58
2024/02/21 08:05:17;;;;;;;13.60;10.00;;;;;;;4.05;100.00;101450.69;106696;1269;65706;-57
2024/02/21 08:07:45;;;;;;;9.90;8.70;;;;;;;4.08;100.00;101448.55;105420;1269;72113;-57
2024/02/21 08:10:12;;;;;;;9.50;8.60;;;;;;;4.10;100.00;101447.33;105782;1269;60504;-54
2024/02/21 08:12:39;;;;;;;11.60;9.40;;;;;;;4.14;100.00;101446.48;105261;1267;60486;-58
2024/02/21 08:15:12;;;;;;;11.80;9.20;;;;;;;4.16;100.00;101447.89;105354;1267;73118;-59
2024/02/21 08:17:39;;;;;;;13.00;10.10;;;;;;;4.20;100.00;101450.75;106417;1267;68906;-59
2024/02/21 08:20:07;;;;;;;12.50;10.00;;;;;;;4.23;100.00;101450.42;105267;1266;74987;-58
2024/02/21 08:22:37;;;;;;;11.60;10.00;;;;;;;4.27;100.00;101452.55;105305;1270;60454;-54
2024/02/21 08:25:05;;;;;;;14.10;9.10;;;;;;;4.32;100.00;101452.77;105669;1269;59810;-54
2024/02/21 08:27:33;;;;;;;9.10;7.90;;;;;;;4.37;100.00;101452.77;105190;1271;73140;-55
2024/02/21 08:30:00;;;;;;;10.00;8.50;;;;;;;4.43;100.00;101455.64;105306;1267;65290;-56
2024/02/21 08:32:28;;;;;;;7.60;6.90;;;;;;;4.48;100.00;101454.95;105623;1269;71651;-55
2024/02/21 08:34:56;;;;;;;9.00;7.10;;;;;;;4.55;100.00;101462.45;105468;1270;59874;-57
2024/02/21 08:37:23;;;;;;;9.90;7.50;;;;;;;4.63;100.00;101464.77;105305;1266;60157;-56
2024/02/21 08:39:51;;;;;;;8.00;7.30;;;;;;;4.69;100.00;101469.42;105276;1270;71822;-57
2024/02/21 08:42:18;;;;;;;7.50;6.70;;;;;;;4.76;100.00;101469.27;105240;1270;66145;-58
2024/02/21 08:44:45;;;;;;;8.40;7.50;;;;;;;4.83;100.00;101471.41;105347;1266;73317;-55
2024/02/21 08:47:13;;;;;;;7.80;6.20;;;;;;;4.92;100.00;101476.95;107478;1266;60553;-55
2024/02/21 08:49:40;;;;;;;6.80;6.20;;;;;;;5.01;100.00;101483.36;105217;1275;60094;-58
2024/02/21 08:52:09;;;;;;;9.00;7.10;;;;;;;5.10;100.00;101492.10;105364;1266;72092;-55
2024/02/21 08:54:36;;;;;;;8.50;6.40;;;;;;;5.19;100.00;101497.10;106176;1266;65592;-57
2024/02/21 08:57:04;;;;;;;8.20;7.30;;;;;;;5.27;100.00;101502.63;105305;1267;71465;-58
2024/02/21 08:59:32;;;;;;;8.00;7.20;;;;;;;5.33;100.00;101504.23;105178;1266;61125;-58
2024/02/21 09:01:59;;;;;;;7.90;7.00;;;;;;;5.38;100.00;101512.42;105368;1270;60444;-55
2024/02/21 09:04:27;;;;;;;6.20;5.70;;;;;;;5.44;100.00;101519.38;105413;1272;73522;-56
2024/02/21 09:06:55;;;;;;;7.90;6.10;;;;;;;5.49;100.00;101521.52;105361;1266;67138;-57
2024/02/21 09:09:22;;;;;;;5.60;5.10;;;;;;;5.53;100.00;101529.36;106059;1267;71465;-57
2024/02/21 09:11:53;;;;;;;6.40;5.80;;;;;;;5.60;100.00;101537.20;105220;1271;61599;-57
2024/02/21 09:14:22;;;;;;;8.70;6.40;;;;;;;5.65;100.00;101539.33;106133;1271;60786;-56
2024/02/21 09:16:49;;;;;;;6.20;5.00;;;;;;;5.70;100.00;101543.44;106098;1266;74082;-59
2024/02/21 09:19:17;;;;;;;4.30;3.90;;;;;;;5.73;100.00;101548.77;105213;1266;66964;-56
2024/02/21 09:21:45;;;;;;;6.00;5.50;;;;;;;5.75;100.00;101553.23;105344;1271;71852;-58
2024/02/21 09:24:12;;;;;;;7.30;5.60;;;;;;;5.74;100.00;101551.27;105360;1272;60510;-57
2024/02/21 09:26:40;;;;;;;6.00;5.30;;;;;;;5.73;100.00;101555.36;105250;1266;60057;-55
2024/02/21 09:29:07;;;;;;;4.10;3.70;;;;;;;5.74;100.00;101553.40;105311;1271;71233;-54
2024/02/21 09:31:35;;;;;;;5.30;4.80;;;;;;;5.76;100.00;101557.33;105214;1270;67564;-57
2024/02/21 09:34:03;;;;;;;6.40;4.50;;;;;;;5.79;100.00;101556.61;105208;1266;72694;-59
2024/02/21 09:36:30;;;;;;;4.20;3.70;;;;;;;5.80;100.00;101558.92;106480;1260;60543;-56
2024/02/21 09:38:58;;;;;;;3.90;3.60;;;;;;;5.82;100.00;101563.73;105757;1266;60153;-57
2024/02/21 09:41:27;;;;;;;5.80;5.20;;;;;;;5.83;100.00;101558.93;105795;1269;71861;-56
2024/02/21 09:43:54;;;;;;;4.40;3.90;;;;;;;5.87;100.00;101567.14;105883;1263;65761;-57
2024/02/21 09:46:37;;;;;;;3.50;2.90;;;;;;;5.91;100.00;101565.90;105798;1260;71241;-57
2024/02/21 09:49:33;;;;;;;3.30;3.10;;;;;;;5.91;100.00;101580.52;105798;1263;59730;-56
2024/02/21 09:52:04;;;;;;;3.80;3.50;;;;;;;5.91;100.00;101586.75;105972;1263;59666;-55
2024/02/21 09:54:35;;;;;;;4.60;4.20;;;;;;;5.91;100.00;101575.52;108778;1258;71837;-57
2024/02/21 09:57:03;;;;;;;4.30;3.60;;;;;;;5.89;100.00;101571.96;107620;1262;65970;-57
2024/02/21 09:59:31;;;;;;;5.10;4.60;;;;;;;5.86;100.00;101570.34;105797;1274;72828;-57
2024/02/21 10:02:00;;;;;;;4.30;3.60;;;;;;;5.85;100.00;101567.31;105844;1259;60553;-56
2024/02/21 10:04:29;;;;;;;4.50;4.00;;;;;;;5.85;100.00;101564.99;106205;1260;59728;-55
2024/02/21 10:06:56;;;;;;;4.30;3.80;;;;;;;5.88;100.00;101569.27;107629;1262;71164;-55
2024/02/21 10:09:27;;;;;;;4.20;3.90;;;;;;;5.91;100.00;101569.65;105856;1259;67448;-57
2024/02/21 10:11:55;;;;;;;3.50;3.20;;;;;;;5.96;100.00;101578.73;108680;1258;71978;-56
2024/02/21 10:14:23;;;;;;;3.40;3.10;;;;;;;6.01;100.00;101577.48;108624;1259;61958;-57
2024/02/21 10:16:58;;;;;;;5.50;2.60;;;;;;;6.07;100.00;101580.14;105807;1257;60835;-56
2024/02/21 10:19:25;;;;;;;3.10;2.80;;;;;;;6.15;100.00;101592.78;108672;1259;71886;-57
2024/02/21 10:22:08;;;;;;;3.60;3.20;;;;;;;6.19;100.00;101592.27;108815;1259;66949;-56
2024/02/21 10:24:42;;;;;;;3.50;2.70;;;;;;;6.23;100.00;101603.30;108694;1260;72796;-55
2024/02/21 10:27:10;;;;;;;3.00;2.70;;;;;;;6.25;100.00;101599.73;108712;1260;61754;-56
2024/02/21 10:29:39;;;;;;;3.00;2.70;;;;;;;6.30;100.00;101602.23;108694;1257;59435;-56
2024/02/21 10:32:11;;;;;;;1.90;1.80;;;;;;;6.36;100.00;101604.37;108692;1257;73303;-53
2024/02/21 10:34:40;;;;;;;1.70;1.60;;;;;;;6.42;100.00;101609.88;108725;1257;67254;-56
2024/02/21 10:37:10;;;;;;;2.00;1.50;;;;;;;6.47;100.00;101611.47;108718;1257;71520;-58
2024/02/21 10:39:39;;;;;;;2.30;1.30;;;;;;;6.54;100.00;101621.98;108724;1256;60947;-55
2024/02/21 10:42:07;;;;;;;1.20;1.10;;;;;;;6.58;100.00;101625.00;108807;1257;60112;-55
2024/02/21 10:44:37;;;;;;;2.10;1.90;;;;;;;6.58;100.00;101625.35;106957;1257;73107;-56
2024/02/21 10:47:09;;;;;;;3.80;1.70;;;;;;;6.56;100.00;101626.06;108793;1257;68177;-57
2024/02/21 10:49:39;;;;;;;1.90;1.60;;;;;;;6.53;100.00;101633.58;106325;1266;70808;-56
2024/02/21 10:52:15;;;;;;;2.70;1.50;;;;;;;6.48;100.00;101626.80;108757;1260;61878;-57
2024/02/21 10:54:56;;;;;;;2.10;1.40;;;;;;;6.44;100.00;101628.06;106388;1259;60492;-55
2024/02/21 10:57:25;;;;;;;1.40;1.20;;;;;;;6.42;100.00;101627.89;105838;1262;74068;-58
2024/02/21 10:59:52;;;;;;;2.00;1.70;;;;;;;6.41;100.00;101616.47;105904;1260;65756;-57
2024/02/21 11:02:19;;;;;;;3.00;1.60;;;;;;;6.41;100.00;101616.65;105733;1265;72746;-56
2024/02/21 11:04:47;;;;;;;2.20;1.70;;;;;;;6.41;100.00;101617.01;106345;1264;60563;-60
2024/02/21 11:07:15;;;;;;;1.90;1.60;;;;;;;6.41;100.00;101617.37;105958;1257;60519;-59
2024/02/21 11:09:50;;;;;;;3.40;1.50;;;;;;;6.41;100.00;101618.97;105811;1262;73555;-57
2024/02/21 11:12:20;;;;;;;2.90;1.80;;;;;;;6.39;100.00;101627.53;105861;1256;67858;-57
2024/02/21 11:14:47;;;;;;;2.10;1.90;;;;;;;6.36;100.00;101622.38;106318;1260;71928;-59